sensor_id;sensor_type;location;lat;lon;timestamp;P1;durP1;ratioP1;P2;durP2;ratioP2
47129;SDS011;69689;48.122;11.542;2023-08-07T05:03:35;0.00;;;0.00;;
47129;SDS011;69689;48.122;11.542;2023-08-07T05:06:00;0.00;;;0.00;;
47129;SDS011;69689;48.122;11.542;2023-08-07T05:08:26;0.00;;;0.00;;
47129;SDS011;69689;48.122;11.542;2023-08-07T05:10:52;0.00;;;0.00;;
47129;SDS011;69689;48.122;11.542;2023-08-07T05:13:17;0.00;;;0.00;;
47129;SDS011;69689;48.122;11.542;2023-08-07T05:15:42;0.00;;;0.00;;
47129;SDS011;69689;48.122;11.542;2023-08-07T05:18:07;0.00;;;0.00;;
47129;SDS011;69689;48.122;11.542;2023-08-07T05:20:33;0.00;;;0.00;;
47129;SDS011;69689;48.122;11.542;2023-08-07T05:22:58;0.00;;;0.00;;
47129;SDS011;69689;48.122;11.542;2023-08-07T05:25:23;0.00;;;0.00;;
47129;SDS011;69689;48.122;11.542;2023-08-07T05:27:49;0.00;;;0.00;;
47129;SDS011;69689;48.122;11.542;2023-08-07T05:30:14;0.00;;;0.00;;
47129;SDS011;69689;48.122;11.542;2023-08-07T05:32:39;0.00;;;0.00;;
47129;SDS011;69689;48.122;11.542;2023-08-07T05:35:05;0.00;;;0.00;;
47129;SDS011;69689;48.122;11.542;2023-08-07T05:37:31;0.00;;;0.00;;
47129;SDS011;69689;48.122;11.542;2023-08-07T05:39:57;0.00;;;0.00;;
47129;SDS011;69689;48.122;11.542;2023-08-07T05:42:22;0.00;;;0.00;;
47129;SDS011;69689;48.122;11.542;2023-08-07T05:44:48;0.00;;;0.00;;
47129;SDS011;69689;48.122;11.542;2023-08-07T05:47:13;0.00;;;0.00;;
47129;SDS011;69689;48.122;11.542;2023-08-07T05:49:39;0.00;;;0.00;;
47129;SDS011;69689;48.122;11.542;2023-08-07T05:52:04;0.00;;;0.00;;
47129;SDS011;69689;48.122;11.542;2023-08-07T05:54:30;0.00;;;0.00;;
47129;SDS011;69689;48.122;11.542;2023-08-07T05:56:56;0.00;;;0.00;;
47129;SDS011;69689;48.122;11.542;2023-08-07T05:59:21;0.00;;;0.00;;
47129;SDS011;69689;48.122;11.542;2023-08-07T06:01:46;0.00;;;0.00;;
47129;SDS011;69689;48.122;11.542;2023-08-07T06:04:12;0.00;;;0.00;;
47129;SDS011;69689;48.122;11.542;2023-08-07T06:06:37;0.00;;;0.00;;
47129;SDS011;69689;48.122;11.542;2023-08-07T06:09:04;0.00;;;0.00;;
47129;SDS011;69689;48.122;11.542;2023-08-07T06:11:30;0.00;;;0.00;;
47129;SDS011;69689;48.122;11.542;2023-08-07T06:13:55;0.00;;;0.00;;
47129;SDS011;69689;48.122;11.542;2023-08-07T06:16:20;0.00;;;0.00;;
47129;SDS011;69689;48.122;11.542;2023-08-07T06:18:46;0.00;;;0.00;;
47129;SDS011;69689;48.122;11.542;2023-08-07T06:21:11;0.00;;;0.00;;
47129;SDS011;69689;48.122;11.542;2023-08-07T06:23:36;0.00;;;0.00;;
47129;SDS011;69689;48.122;11.542;2023-08-07T06:26:02;0.00;;;0.00;;
47129;SDS011;69689;48.122;11.542;2023-08-07T06:28:32;0.00;;;0.00;;
47129;SDS011;69689;48.122;11.542;2023-08-07T06:31:06;0.00;;;0.00;;
47129;SDS011;69689;48.122;11.542;2023-08-07T06:33:32;0.00;;;0.00;;
47129;SDS011;69689;48.122;11.542;2023-08-07T06:35:58;0.00;;;0.00;;
47129;SDS011;69689;48.122;11.542;2023-08-07T06:38:23;0.00;;;0.00;;
47129;SDS011;69689;48.122;11.542;2023-08-07T06:40:49;0.00;;;0.00;;
47129;SDS011;69689;48.122;11.542;2023-08-07T06:43:14;0.00;;;0.00;;
47129;SDS011;69689;48.122;11.542;2023-08-07T06:45:39;0.00;;;0.00;;
47129;SDS011;69689;48.122;11.542;2023-08-07T06:48:05;0.00;;;0.00;;
47129;SDS011;69689;48.122;11.542;2023-08-07T06:50:30;0.00;;;0.00;;
47129;SDS011;69689;48.122;11.542;2023-08-07T06:52:55;0.00;;;0.00;;
47129;SDS011;69689;48.122;11.542;2023-08-07T06:55:21;0.00;;;0.00;;
47129;SDS011;69689;48.122;11.542;2023-08-07T06:57:46;0.00;;;0.00;;
47129;SDS011;69689;48.122;11.542;2023-08-07T07:00:12;0.00;;;0.00;;
47129;SDS011;69689;48.122;11.542;2023-08-07T07:02:37;0.00;;;0.00;;
47129;SDS011;69689;48.122;11.542;2023-08-07T07:05:03;0.00;;;0.00;;
47129;SDS011;69689;48.122;11.542;2023-08-07T07:07:30;0.00;;;0.00;;
47129;SDS011;69689;48.122;11.542;2023-08-07T07:09:55;0.00;;;0.00;;
47129;SDS011;69689;48.122;11.542;2023-08-07T07:12:22;0.00;;;0.00;;
47129;SDS011;69689;48.122;11.542;2023-08-07T07:17:13;0.00;;;0.00;;
47129;SDS011;69689;48.122;11.542;2023-08-07T07:22:04;0.00;;;0.00;;
47129;SDS011;69689;48.122;11.542;2023-08-07T07:24:29;0.00;;;0.00;;
47129;SDS011;69689;48.122;11.542;2023-08-07T07:26:55;0.00;;;0.00;;
47129;SDS011;69689;48.122;11.542;2023-08-07T07:29:20;0.00;;;0.00;;
47129;SDS011;69689;48.122;11.542;2023-08-07T07:31:46;0.00;;;0.00;;
47129;SDS011;69689;48.122;11.542;2023-08-07T07:34:11;0.00;;;0.00;;
47129;SDS011;69689;48.122;11.542;2023-08-07T07:36:37;0.00;;;0.00;;
47129;SDS011;69689;48.122;11.542;2023-08-07T07:39:02;0.00;;;0.00;;
47129;SDS011;69689;48.122;11.542;2023-08-07T07:41:27;0.00;;;0.00;;
47129;SDS011;69689;48.122;11.542;2023-08-07T07:43:53;0.00;;;0.00;;
47129;SDS011;69689;48.122;11.542;2023-08-07T07:46:18;0.00;;;0.00;;
47129;SDS011;69689;48.122;11.542;2023-08-07T07:48:43;0.00;;;0.00;;
47129;SDS011;69689;48.122;11.542;2023-08-07T07:51:09;0.00;;;0.00;;
47129;SDS011;69689;48.122;11.542;2023-08-07T07:53:34;0.00;;;0.00;;
47129;SDS011;69689;48.122;11.542;2023-08-07T07:56:00;0.00;;;0.00;;
47129;SDS011;69689;48.122;11.542;2023-08-07T07:58:25;0.00;;;0.00;;
47129;SDS011;69689;48.122;11.542;2023-08-07T08:00:51;0.00;;;0.00;;
47129;SDS011;69689;48.122;11.542;2023-08-07T08:03:18;0.00;;;0.00;;
47129;SDS011;69689;48.122;11.542;2023-08-07T08:05:45;0.00;;;0.00;;
47129;SDS011;69689;48.122;11.542;2023-08-07T08:08:10;0.00;;;0.00;;
47129;SDS011;69689;48.122;11.542;2023-08-07T08:10:36;0.00;;;0.00;;
47129;SDS011;69689;48.122;11.542;2023-08-07T08:13:01;0.00;;;0.00;;
47129;SDS011;69689;48.122;11.542;2023-08-07T08:15:28;0.00;;;0.00;;
47129;SDS011;69689;48.122;11.542;2023-08-07T08:17:54;0.00;;;0.00;;
47129;SDS011;69689;48.122;11.542;2023-08-07T08:20:19;0.00;;;0.00;;
47129;SDS011;69689;48.122;11.542;2023-08-07T08:22:45;0.00;;;0.00;;
47129;SDS011;69689;48.122;11.542;2023-08-07T08:25:11;0.00;;;0.00;;
47129;SDS011;69689;48.122;11.542;2023-08-07T08:27:39;0.00;;;0.00;;
47129;SDS011;69689;48.122;11.542;2023-08-07T08:30:05;0.00;;;0.00;;
47129;SDS011;69689;48.122;11.542;2023-08-07T08:32:31;0.00;;;0.00;;
47129;SDS011;69689;48.122;11.542;2023-08-07T08:34:56;0.00;;;0.00;;
47129;SDS011;69689;48.122;11.542;2023-08-07T08:37:21;0.00;;;0.00;;
47129;SDS011;69689;48.122;11.542;2023-08-07T08:39:47;0.00;;;0.00;;
47129;SDS011;69689;48.122;11.542;2023-08-07T08:42:12;0.00;;;0.00;;
47129;SDS011;69689;48.122;11.542;2023-08-07T08:44:38;0.00;;;0.00;;
47129;SDS011;69689;48.122;11.542;2023-08-07T08:47:04;0.00;;;0.00;;
47129;SDS011;69689;48.122;11.542;2023-08-07T08:49:34;0.00;;;0.00;;
47129;SDS011;69689;48.122;11.542;2023-08-07T08:52:01;0.00;;;0.00;;
47129;SDS011;69689;48.122;11.542;2023-08-07T08:54:27;0.00;;;0.00;;
47129;SDS011;69689;48.122;11.542;2023-08-07T08:56:52;0.00;;;0.00;;
47129;SDS011;69689;48.122;11.542;2023-08-07T08:59:19;0.00;;;0.00;;
47129;SDS011;69689;48.122;11.542;2023-08-07T09:01:46;0.00;;;0.00;;
47129;SDS011;69689;48.122;11.542;2023-08-07T09:04:12;0.00;;;0.00;;
47129;SDS011;69689;48.122;11.542;2023-08-07T09:06:37;0.00;;;0.00;;
47129;SDS011;69689;48.122;11.542;2023-08-07T09:09:02;0.00;;;0.00;;
47129;SDS011;69689;48.122;11.542;2023-08-07T09:11:28;0.00;;;0.00;;
47129;SDS011;69689;48.122;11.542;2023-08-07T09:13:54;0.00;;;0.00;;
47129;SDS011;69689;48.122;11.542;2023-08-07T09:16:21;0.00;;;0.00;;
47129;SDS011;69689;48.122;11.542;2023-08-07T09:18:47;0.00;;;0.00;;
47129;SDS011;69689;48.122;11.542;2023-08-07T09:21:15;0.00;;;0.00;;
47129;SDS011;69689;48.122;11.542;2023-08-07T09:23:41;0.00;;;0.00;;
47129;SDS011;69689;48.122;11.542;2023-08-07T09:26:07;0.00;;;0.00;;
47129;SDS011;69689;48.122;11.542;2023-08-07T09:28:33;0.00;;;0.00;;
47129;SDS011;69689;48.122;11.542;2023-08-07T09:30:59;0.00;;;0.00;;
47129;SDS011;69689;48.122;11.542;2023-08-07T09:33:28;0.00;;;0.00;;
47129;SDS011;69689;48.122;11.542;2023-08-07T09:35:57;0.00;;;0.00;;
47129;SDS011;69689;48.122;11.542;2023-08-07T09:38:23;0.00;;;0.00;;
47129;SDS011;69689;48.122;11.542;2023-08-07T09:40:49;0.00;;;0.00;;
47129;SDS011;69689;48.122;11.542;2023-08-07T09:43:23;0.00;;;0.00;;
47129;SDS011;69689;48.122;11.542;2023-08-07T09:45:48;0.00;;;0.00;;
47129;SDS011;69689;48.122;11.542;2023-08-07T09:48:23;0.00;;;0.00;;
47129;SDS011;69689;48.122;11.542;2023-08-07T09:50:49;0.00;;;0.00;;
47129;SDS011;69689;48.122;11.542;2023-08-07T09:53:15;0.00;;;0.00;;
47129;SDS011;69689;48.122;11.542;2023-08-07T09:55:40;0.00;;;0.00;;
47129;SDS011;69689;48.122;11.542;2023-08-07T09:58:07;0.00;;;0.00;;
47129;SDS011;69689;48.122;11.542;2023-08-07T10:00:33;0.00;;;0.00;;
47129;SDS011;69689;48.122;11.542;2023-08-07T10:03:00;0.00;;;0.00;;
47129;SDS011;69689;48.122;11.542;2023-08-07T10:05:26;0.00;;;0.00;;
47129;SDS011;69689;48.122;11.542;2023-08-07T10:07:51;0.00;;;0.00;;
47129;SDS011;69689;48.122;11.542;2023-08-07T10:10:17;0.00;;;0.00;;
47129;SDS011;69689;48.122;11.542;2023-08-07T10:12:42;0.00;;;0.00;;
47129;SDS011;69689;48.122;11.542;2023-08-07T10:15:10;0.00;;;0.00;;
47129;SDS011;69689;48.122;11.542;2023-08-07T10:17:36;0.00;;;0.00;;
47129;SDS011;69689;48.122;11.542;2023-08-07T10:20:01;0.00;;;0.00;;
47129;SDS011;69689;48.122;11.542;2023-08-07T10:22:29;0.10;;;0.10;;
47129;SDS011;69689;48.122;11.542;2023-08-07T10:24:56;0.10;;;0.10;;
47129;SDS011;69689;48.122;11.542;2023-08-07T10:27:22;0.03;;;0.03;;
47129;SDS011;69689;48.122;11.542;2023-08-07T10:29:48;0.10;;;0.10;;
47129;SDS011;69689;48.122;11.542;2023-08-07T10:32:17;0.30;;;0.30;;
47129;SDS011;69689;48.122;11.542;2023-08-07T10:34:49;0.40;;;0.40;;
47129;SDS011;69689;48.122;11.542;2023-08-07T10:37:38;0.20;;;0.20;;
47129;SDS011;69689;48.122;11.542;2023-08-07T10:40:05;0.05;;;0.05;;
47129;SDS011;69689;48.122;11.542;2023-08-07T10:42:49;0.00;;;0.00;;
47129;SDS011;69689;48.122;11.542;2023-08-07T10:45:28;0.00;;;0.00;;
47129;SDS011;69689;48.122;11.542;2023-08-07T10:48:10;0.00;;;0.00;;
47129;SDS011;69689;48.122;11.542;2023-08-07T10:53:32;1.35;;;1.35;;
47129;SDS011;69689;48.122;11.542;2023-08-07T10:56:09;3.47;;;3.40;;
47129;SDS011;69689;48.122;11.542;2023-08-07T10:58:36;4.72;;;4.63;;
47129;SDS011;69689;48.122;11.542;2023-08-07T11:03:42;4.60;;;4.50;;
47129;SDS011;69689;48.122;11.542;2023-08-07T11:06:09;6.72;;;6.57;;
47129;SDS011;69689;48.122;11.542;2023-08-07T11:08:35;9.35;;;9.15;;
47129;SDS011;69689;48.122;11.542;2023-08-07T11:11:06;13.80;;;13.40;;
47129;SDS011;69689;48.122;11.542;2023-08-07T11:13:35;14.75;;;14.35;;
47129;SDS011;69689;48.122;11.542;2023-08-07T11:16:03;34.65;;;33.65;;
47129;SDS011;69689;48.122;11.542;2023-08-07T11:18:30;49.78;;;48.30;;
47129;SDS011;69689;48.122;11.542;2023-08-07T11:20:55;65.38;;;63.53;;
47129;SDS011;69689;48.122;11.542;2023-08-07T11:23:24;12.48;;;12.18;;
47129;SDS011;69689;48.122;11.542;2023-08-07T11:25:50;6.05;;;5.95;;
47129;SDS011;69689;48.122;11.542;2023-08-07T11:28:19;4.35;;;4.25;;
47129;SDS011;69689;48.122;11.542;2023-08-07T11:30:49;1.15;;;1.15;;
47129;SDS011;69689;48.122;11.542;2023-08-07T11:33:21;0.20;;;0.20;;
47129;SDS011;69689;48.122;11.542;2023-08-07T11:35:47;0.25;;;0.25;;
47129;SDS011;69689;48.122;11.542;2023-08-07T11:38:15;0.10;;;0.10;;
47129;SDS011;69689;48.122;11.542;2023-08-07T11:40:53;0.00;;;0.00;;
47129;SDS011;69689;48.122;11.542;2023-08-07T11:43:19;0.00;;;0.00;;
47129;SDS011;69689;48.122;11.542;2023-08-07T11:45:44;0.00;;;0.00;;
47129;SDS011;69689;48.122;11.542;2023-08-07T11:48:09;0.00;;;0.00;;
47129;SDS011;69689;48.122;11.542;2023-08-07T11:50:35;0.00;;;0.00;;
47129;SDS011;69689;48.122;11.542;2023-08-07T11:53:00;0.00;;;0.00;;
47129;SDS011;69689;48.122;11.542;2023-08-07T11:55:27;0.00;;;0.00;;
47129;SDS011;69689;48.122;11.542;2023-08-07T11:57:53;0.00;;;0.00;;
47129;SDS011;69689;48.122;11.542;2023-08-07T12:00:19;0.00;;;0.00;;
47129;SDS011;69689;48.122;11.542;2023-08-07T12:02:45;0.00;;;0.00;;
47129;SDS011;69689;48.122;11.542;2023-08-07T12:05:10;0.00;;;0.00;;
47129;SDS011;69689;48.122;11.542;2023-08-07T12:07:36;0.00;;;0.00;;
47129;SDS011;69689;48.122;11.542;2023-08-07T12:10:09;0.00;;;0.00;;
47129;SDS011;69689;48.122;11.542;2023-08-07T12:12:38;0.00;;;0.00;;
47129;SDS011;69689;48.122;11.542;2023-08-07T12:15:07;0.00;;;0.00;;
47129;SDS011;69689;48.122;11.542;2023-08-07T12:17:33;0.00;;;0.00;;
47129;SDS011;69689;48.122;11.542;2023-08-07T12:19:59;0.00;;;0.00;;
47129;SDS011;69689;48.122;11.542;2023-08-07T12:22:26;0.00;;;0.00;;
47129;SDS011;69689;48.122;11.542;2023-08-07T12:24:55;0.00;;;0.00;;
47129;SDS011;69689;48.122;11.542;2023-08-07T12:27:21;0.03;;;0.03;;
47129;SDS011;69689;48.122;11.542;2023-08-07T12:29:46;0.10;;;0.10;;
47129;SDS011;69689;48.122;11.542;2023-08-07T12:32:11;0.20;;;0.20;;
47129;SDS011;69689;48.122;11.542;2023-08-07T12:34:36;0.20;;;0.20;;
47129;SDS011;69689;48.122;11.542;2023-08-07T12:37:03;0.80;;;0.80;;
47129;SDS011;69689;48.122;11.542;2023-08-07T12:39:29;3.75;;;3.65;;
47129;SDS011;69689;48.122;11.542;2023-08-07T12:41:54;3.00;;;3.00;;
47129;SDS011;69689;48.122;11.542;2023-08-07T12:44:19;2.70;;;2.70;;
47129;SDS011;69689;48.122;11.542;2023-08-07T12:46:45;1.23;;;1.23;;
47129;SDS011;69689;48.122;11.542;2023-08-07T12:49:10;0.27;;;0.27;;
47129;SDS011;69689;48.122;11.542;2023-08-07T12:51:35;0.03;;;0.03;;
47129;SDS011;69689;48.122;11.542;2023-08-07T12:54:00;0.00;;;0.00;;
47129;SDS011;69689;48.122;11.542;2023-08-07T12:56:26;0.00;;;0.00;;
47129;SDS011;69689;48.122;11.542;2023-08-07T12:58:51;0.00;;;0.00;;
47129;SDS011;69689;48.122;11.542;2023-08-07T13:01:16;0.00;;;0.00;;
47129;SDS011;69689;48.122;11.542;2023-08-07T13:03:42;0.00;;;0.00;;
47129;SDS011;69689;48.122;11.542;2023-08-07T13:06:07;0.00;;;0.00;;
47129;SDS011;69689;48.122;11.542;2023-08-07T13:08:34;0.00;;;0.00;;
47129;SDS011;69689;48.122;11.542;2023-08-07T13:11:00;0.00;;;0.00;;
47129;SDS011;69689;48.122;11.542;2023-08-07T13:13:26;0.13;;;0.13;;
47129;SDS011;69689;48.122;11.542;2023-08-07T13:15:53;0.20;;;0.20;;
47129;SDS011;69689;48.122;11.542;2023-08-07T13:18:18;0.52;;;0.52;;
47129;SDS011;69689;48.122;11.542;2023-08-07T13:20:43;1.07;;;1.07;;
47129;SDS011;69689;48.122;11.542;2023-08-07T13:23:09;1.20;;;1.20;;
47129;SDS011;69689;48.122;11.542;2023-08-07T13:25:34;4.53;;;4.43;;
47129;SDS011;69689;48.122;11.542;2023-08-07T13:27:59;4.70;;;4.60;;
47129;SDS011;69689;48.122;11.542;2023-08-07T13:30:25;0.52;;;0.52;;
47129;SDS011;69689;48.122;11.542;2023-08-07T13:32:51;0.10;;;0.10;;
47129;SDS011;69689;48.122;11.542;2023-08-07T13:35:16;0.10;;;0.10;;
47129;SDS011;69689;48.122;11.542;2023-08-07T13:37:41;0.00;;;0.00;;
47129;SDS011;69689;48.122;11.542;2023-08-07T13:40:07;0.00;;;0.00;;
47129;SDS011;69689;48.122;11.542;2023-08-07T13:42:33;0.00;;;0.00;;
47129;SDS011;69689;48.122;11.542;2023-08-07T13:44:58;0.00;;;0.00;;
47129;SDS011;69689;48.122;11.542;2023-08-07T13:47:24;0.00;;;0.00;;
47129;SDS011;69689;48.122;11.542;2023-08-07T13:49:50;0.00;;;0.00;;
47129;SDS011;69689;48.122;11.542;2023-08-07T13:52:17;0.00;;;0.00;;
47129;SDS011;69689;48.122;11.542;2023-08-07T13:54:43;0.00;;;0.00;;
47129;SDS011;69689;48.122;11.542;2023-08-07T13:57:08;0.15;;;0.15;;
47129;SDS011;69689;48.122;11.542;2023-08-07T13:59:33;0.13;;;0.13;;
47129;SDS011;69689;48.122;11.542;2023-08-07T14:01:59;0.15;;;0.15;;
47129;SDS011;69689;48.122;11.542;2023-08-07T14:04:24;0.00;;;0.00;;
47129;SDS011;69689;48.122;11.542;2023-08-07T14:06:50;0.00;;;0.00;;
47129;SDS011;69689;48.122;11.542;2023-08-07T14:09:15;0.00;;;0.00;;
47129;SDS011;69689;48.122;11.542;2023-08-07T14:11:42;0.00;;;0.00;;
47129;SDS011;69689;48.122;11.542;2023-08-07T14:14:07;0.00;;;0.00;;
47129;SDS011;69689;48.122;11.542;2023-08-07T14:16:32;0.00;;;0.00;;
47129;SDS011;69689;48.122;11.542;2023-08-07T14:18:57;0.00;;;0.00;;
47129;SDS011;69689;48.122;11.542;2023-08-07T14:21:23;0.00;;;0.00;;
47129;SDS011;69689;48.122;11.542;2023-08-07T14:23:49;0.00;;;0.00;;
47129;SDS011;69689;48.122;11.542;2023-08-07T14:26:14;0.00;;;0.00;;
47129;SDS011;69689;48.122;11.542;2023-08-07T14:28:40;0.00;;;0.00;;
47129;SDS011;69689;48.122;11.542;2023-08-07T14:31:06;0.00;;;0.00;;
47129;SDS011;69689;48.122;11.542;2023-08-07T14:33:33;0.00;;;0.00;;
47129;SDS011;69689;48.122;11.542;2023-08-07T14:35:58;0.00;;;0.00;;
47129;SDS011;69689;48.122;11.542;2023-08-07T14:38:25;0.00;;;0.00;;
47129;SDS011;69689;48.122;11.542;2023-08-07T14:40:50;0.00;;;0.00;;
47129;SDS011;69689;48.122;11.542;2023-08-07T14:43:15;0.00;;;0.00;;
47129;SDS011;69689;48.122;11.542;2023-08-07T14:45:41;0.00;;;0.00;;
47129;SDS011;69689;48.122;11.542;2023-08-07T14:48:06;0.00;;;0.00;;
47129;SDS011;69689;48.122;11.542;2023-08-07T14:50:32;0.00;;;0.00;;
47129;SDS011;69689;48.122;11.542;2023-08-07T14:52:57;0.00;;;0.00;;
47129;SDS011;69689;48.122;11.542;2023-08-07T14:55:22;0.00;;;0.00;;
47129;SDS011;69689;48.122;11.542;2023-08-07T14:57:48;0.00;;;0.00;;
47129;SDS011;69689;48.122;11.542;2023-08-07T15:00:13;0.00;;;0.00;;
47129;SDS011;69689;48.122;11.542;2023-08-07T15:02:39;0.00;;;0.00;;
47129;SDS011;69689;48.122;11.542;2023-08-07T15:05:06;0.00;;;0.00;;
47129;SDS011;69689;48.122;11.542;2023-08-07T15:07:31;0.00;;;0.00;;
47129;SDS011;69689;48.122;11.542;2023-08-07T15:09:56;0.00;;;0.00;;
47129;SDS011;69689;48.122;11.542;2023-08-07T15:12:22;0.00;;;0.00;;
47129;SDS011;69689;48.122;11.542;2023-08-07T15:14:47;0.00;;;0.00;;
47129;SDS011;69689;48.122;11.542;2023-08-07T15:17:12;0.00;;;0.00;;
47129;SDS011;69689;48.122;11.542;2023-08-07T15:19:38;0.00;;;0.00;;
47129;SDS011;69689;48.122;11.542;2023-08-07T15:22:03;0.00;;;0.00;;
47129;SDS011;69689;48.122;11.542;2023-08-07T15:24:29;0.00;;;0.00;;
47129;SDS011;69689;48.122;11.542;2023-08-07T15:26:55;0.00;;;0.00;;
47129;SDS011;69689;48.122;11.542;2023-08-07T15:29:20;0.00;;;0.00;;
47129;SDS011;69689;48.122;11.542;2023-08-07T15:31:45;0.10;;;0.10;;
47129;SDS011;69689;48.122;11.542;2023-08-07T15:34:10;0.30;;;0.30;;
47129;SDS011;69689;48.122;11.542;2023-08-07T15:36:36;0.10;;;0.10;;
47129;SDS011;69689;48.122;11.542;2023-08-07T15:39:01;0.30;;;0.30;;
47129;SDS011;69689;48.122;11.542;2023-08-07T15:41:27;0.20;;;0.20;;
47129;SDS011;69689;48.122;11.542;2023-08-07T15:43:53;0.00;;;0.00;;
47129;SDS011;69689;48.122;11.542;2023-08-07T15:46:18;0.00;;;0.00;;
47129;SDS011;69689;48.122;11.542;2023-08-07T15:48:44;0.00;;;0.00;;
47129;SDS011;69689;48.122;11.542;2023-08-07T15:51:09;0.00;;;0.00;;
47129;SDS011;69689;48.122;11.542;2023-08-07T15:53:34;0.00;;;0.00;;
47129;SDS011;69689;48.122;11.542;2023-08-07T15:56:00;0.00;;;0.00;;
47129;SDS011;69689;48.122;11.542;2023-08-07T15:58:25;0.00;;;0.00;;
47129;SDS011;69689;48.122;11.542;2023-08-07T16:00:51;0.00;;;0.00;;
47129;SDS011;69689;48.122;11.542;2023-08-07T16:03:16;0.00;;;0.00;;
47129;SDS011;69689;48.122;11.542;2023-08-07T16:05:43;0.00;;;0.00;;
47129;SDS011;69689;48.122;11.542;2023-08-07T16:08:09;0.00;;;0.00;;
47129;SDS011;69689;48.122;11.542;2023-08-07T16:10:34;0.00;;;0.00;;
47129;SDS011;69689;48.122;11.542;2023-08-07T16:13:00;0.00;;;0.00;;
47129;SDS011;69689;48.122;11.542;2023-08-07T16:15:25;0.00;;;0.00;;
47129;SDS011;69689;48.122;11.542;2023-08-07T16:17:51;0.00;;;0.00;;
47129;SDS011;69689;48.122;11.542;2023-08-07T16:20:17;0.00;;;0.00;;
47129;SDS011;69689;48.122;11.542;2023-08-07T16:22:43;0.00;;;0.00;;
47129;SDS011;69689;48.122;11.542;2023-08-07T16:25:08;0.00;;;0.00;;
47129;SDS011;69689;48.122;11.542;2023-08-07T16:27:34;0.00;;;0.00;;
47129;SDS011;69689;48.122;11.542;2023-08-07T16:30:00;0.00;;;0.00;;
47129;SDS011;69689;48.122;11.542;2023-08-07T16:32:30;0.00;;;0.00;;
47129;SDS011;69689;48.122;11.542;2023-08-07T16:34:57;0.00;;;0.00;;
47129;SDS011;69689;48.122;11.542;2023-08-07T16:37:23;0.00;;;0.00;;
47129;SDS011;69689;48.122;11.542;2023-08-07T16:39:48;0.00;;;0.00;;
47129;SDS011;69689;48.122;11.542;2023-08-07T16:42:13;0.00;;;0.00;;
47129;SDS011;69689;48.122;11.542;2023-08-07T16:44:39;0.00;;;0.00;;
47129;SDS011;69689;48.122;11.542;2023-08-07T16:47:04;0.00;;;0.00;;
47129;SDS011;69689;48.122;11.542;2023-08-07T16:49:31;0.00;;;0.00;;
47129;SDS011;69689;48.122;11.542;2023-08-07T16:51:57;0.00;;;0.00;;
47129;SDS011;69689;48.122;11.542;2023-08-07T16:54:23;0.00;;;0.00;;
47129;SDS011;69689;48.122;11.542;2023-08-07T16:56:49;0.00;;;0.00;;
47129;SDS011;69689;48.122;11.542;2023-08-07T16:59:14;0.00;;;0.00;;
47129;SDS011;69689;48.122;11.542;2023-08-07T17:01:40;0.00;;;0.00;;
47129;SDS011;69689;48.122;11.542;2023-08-07T17:04:05;0.00;;;0.00;;
47129;SDS011;69689;48.122;11.542;2023-08-07T17:06:30;0.00;;;0.00;;
47129;SDS011;69689;48.122;11.542;2023-08-07T17:08:55;0.00;;;0.00;;
47129;SDS011;69689;48.122;11.542;2023-08-07T17:11:21;0.00;;;0.00;;
47129;SDS011;69689;48.122;11.542;2023-08-07T17:13:48;0.00;;;0.00;;
47129;SDS011;69689;48.122;11.542;2023-08-07T17:16:13;0.00;;;0.00;;
47129;SDS011;69689;48.122;11.542;2023-08-07T17:18:38;0.00;;;0.00;;
47129;SDS011;69689;48.122;11.542;2023-08-07T17:21:04;0.00;;;0.00;;
47129;SDS011;69689;48.122;11.542;2023-08-07T17:23:29;0.00;;;0.00;;
47129;SDS011;69689;48.122;11.542;2023-08-07T17:25:55;0.00;;;0.00;;
47129;SDS011;69689;48.122;11.542;2023-08-07T17:28:20;0.00;;;0.00;;
47129;SDS011;69689;48.122;11.542;2023-08-07T17:30:46;0.00;;;0.00;;
47129;SDS011;69689;48.122;11.542;2023-08-07T17:33:11;0.00;;;0.00;;
47129;SDS011;69689;48.122;11.542;2023-08-07T17:35:36;0.00;;;0.00;;
47129;SDS011;69689;48.122;11.542;2023-08-07T17:38:02;0.00;;;0.00;;
47129;SDS011;69689;48.122;11.542;2023-08-07T17:40:29;0.00;;;0.00;;
47129;SDS011;69689;48.122;11.542;2023-08-07T17:42:54;0.00;;;0.00;;
47129;SDS011;69689;48.122;11.542;2023-08-07T17:45:19;0.00;;;0.00;;
47129;SDS011;69689;48.122;11.542;2023-08-07T17:47:45;0.00;;;0.00;;
47129;SDS011;69689;48.122;11.542;2023-08-07T17:50:10;0.00;;;0.00;;
47129;SDS011;69689;48.122;11.542;2023-08-07T17:52:36;0.00;;;0.00;;
47129;SDS011;69689;48.122;11.542;2023-08-07T17:55:02;0.00;;;0.00;;
47129;SDS011;69689;48.122;11.542;2023-08-07T17:57:28;0.00;;;0.00;;
47129;SDS011;69689;48.122;11.542;2023-08-07T17:59:54;0.00;;;0.00;;
47129;SDS011;69689;48.122;11.542;2023-08-07T18:04:44;0.00;;;0.00;;
47129;SDS011;69689;48.122;11.542;2023-08-07T18:09:35;0.00;;;0.00;;
47129;SDS011;69689;48.122;11.542;2023-08-07T18:14:25;0.00;;;0.00;;
47129;SDS011;69689;48.122;11.542;2023-08-07T18:19:16;0.00;;;0.00;;
47129;SDS011;69689;48.122;11.542;2023-08-07T18:24:06;0.00;;;0.00;;
47129;SDS011;69689;48.122;11.542;2023-08-07T18:28:57;0.00;;;0.00;;
47129;SDS011;69689;48.122;11.542;2023-08-07T18:33:49;0.00;;;0.00;;
47129;SDS011;69689;48.122;11.542;2023-08-07T18:36:15;0.00;;;0.00;;
47129;SDS011;69689;48.122;11.542;2023-08-07T18:38:40;0.00;;;0.00;;
47129;SDS011;69689;48.122;11.542;2023-08-07T18:41:05;0.00;;;0.00;;
47129;SDS011;69689;48.122;11.542;2023-08-07T18:45:56;0.00;;;0.00;;
47129;SDS011;69689;48.122;11.542;2023-08-07T18:50:47;0.00;;;0.00;;
47129;SDS011;69689;48.122;11.542;2023-08-07T18:55:37;0.00;;;0.00;;
47129;SDS011;69689;48.122;11.542;2023-08-07T18:58:03;0.00;;;0.00;;
